Map

Track Data

SID SEASON NUMBER BASIN SUBBASIN NAME ISO_TIME NATURE LAT LON WMO_WIND WMO_PRES WMO_AGENCY TRACK_TYPE DIST2LAND LANDFALL IFLAG USA_AGENCY USA_ATCF_ID USA_LAT USA_LON USA_RECORD USA_STATUS USA_WIND USA_PRES USA_SSHS USA_R34_NE USA_R34_SE USA_R34_SW USA_R34_NW USA_R50_NE USA_R50_SE USA_R50_SW USA_R50_NW USA_R64_NE USA_R64_SE USA_R64_SW USA_R64_NW USA_POCI USA_ROCI USA_RMW USA_EYE TOKYO_LAT TOKYO_LON TOKYO_GRADE TOKYO_WIND TOKYO_PRES TOKYO_R50_DIR TOKYO_R50_LONG TOKYO_R50_SHORT TOKYO_R30_DIR TOKYO_R30_LONG TOKYO_R30_SHORT TOKYO_LAND CMA_LAT CMA_LON CMA_CAT CMA_WIND CMA_PRES HKO_LAT HKO_LON HKO_CAT HKO_WIND HKO_PRES NEWDELHI_LAT NEWDELHI_LON NEWDELHI_GRADE NEWDELHI_WIND NEWDELHI_PRES NEWDELHI_CI NEWDELHI_DP NEWDELHI_POCI REUNION_LAT REUNION_LON REUNION_TYPE REUNION_WIND REUNION_PRES REUNION_TNUM REUNION_CI REUNION_RMW REUNION_R34_NE REUNION_R34_SE REUNION_R34_SW REUNION_R34_NW REUNION_R50_NE REUNION_R50_SE REUNION_R50_SW REUNION_R50_NW REUNION_R64_NE REUNION_R64_SE REUNION_R64_SW REUNION_R64_NW BOM_LAT BOM_LON BOM_TYPE BOM_WIND BOM_PRES BOM_TNUM BOM_CI BOM_RMW BOM_R34_NE BOM_R34_SE BOM_R34_SW BOM_R34_NW BOM_R50_NE BOM_R50_SE BOM_R50_SW BOM_R50_NW BOM_R64_NE BOM_R64_SE BOM_R64_SW BOM_R64_NW BOM_ROCI BOM_POCI BOM_EYE BOM_POS_METHOD BOM_PRES_METHOD NADI_LAT NADI_LON NADI_CAT NADI_WIND NADI_PRES WELLINGTON_LAT WELLINGTON_LON WELLINGTON_WIND WELLINGTON_PRES DS824_LAT DS824_LON DS824_STAGE DS824_WIND DS824_PRES TD9636_LAT TD9636_LON TD9636_STAGE TD9636_WIND TD9636_PRES TD9635_LAT TD9635_LON TD9635_WIND TD9635_PRES TD9635_ROCI NEUMANN_LAT NEUMANN_LON NEUMANN_CLASS NEUMANN_WIND NEUMANN_PRES MLC_LAT MLC_LON MLC_CLASS MLC_WIND MLC_PRES USA_GUST BOM_GUST BOM_GUST_PER REUNION_GUST REUNION_GUST_PER USA_SEAHGT USA_SEARAD_NE USA_SEARAD_SE USA_SEARAD_SW USA_SEARAD_NW STORM_SPEED STORM_DIR
1993069S08164 1993 21 SP MM ROGER 1993-03-10 06:00:00 TS -8.20000 163.500 main 266 212 O___________O_ jtwc_sh SH221993 -8.20000 163.500 20 -1 -8.20000 163.500 TC 20 10 230
1993069S08164 1993 21 SP MM ROGER 1993-03-10 09:00:00 TS -8.52006 163.110 main 212 160 P___________P_ SH221993 -8.52006 163.110 20 -1 -8.52006 163.110 TC 20 10 233
1993069S08164 1993 21 SP MM ROGER 1993-03-10 12:00:00 TS -8.80000 162.700 main 160 112 O___________O_ jtwc_sh SH221993 -8.80000 162.700 20 -1 -8.80000 162.700 TC 20 10 240
1993069S08164 1993 21 SP MM ROGER 1993-03-10 15:00:00 TS -9.01497 162.257 main 112 54 P___________P_ SH221993 -9.01497 162.257 20 -1 -9.01497 162.257 TC 20 10 246
1993069S08164 1993 21 SP MM ROGER 1993-03-10 18:00:00 TS -9.20000 161.800 main 54 10 O___________O_ jtwc_sh SH221993 -9.20000 161.800 20 -1 -9.20000 161.800 TC 20 10 246
1993069S08164 1993 21 SP MM ROGER 1993-03-10 21:00:00 TS -9.41491 161.357 main 10 0 P___________P_ SH221993 -9.41491 161.357 20 -1 -9.41491 161.357 TC 20 10 246
1993069S08164 1993 21 SP MM ROGER 1993-03-11 00:00:00 TS -9.60000 160.900 main 24 0 O___________O_ jtwc_sh SH221993 -9.60000 160.900 20 -1 -9.60000 160.900 TC 20 10 252
1993069S08164 1993 21 SP MM ROGER 1993-03-11 03:00:00 TS -9.72246 160.407 main 0 0 P___________P_ SH221993 -9.72246 160.407 20 -1 -9.72246 160.407 TC 20 10 259
1993069S08164 1993 21 SP EA ROGER 1993-03-11 06:00:00 TS -9.80000 159.900 main 0 0 O___________O_ jtwc_sh SH221993 -9.80000 159.900 20 -1 -9.80000 159.900 TC 20 10 262
1993069S08164 1993 21 SP EA ROGER 1993-03-11 09:00:00 TS -9.85746 159.392 main 45 45 P___________P_ SH221993 -9.85746 159.392 22 -1 -9.85746 159.392 TC 22 10 264
1993069S08164 1993 21 SP EA ROGER 1993-03-11 12:00:00 TS -9.90000 158.900 main 88 88 O___________O_ jtwc_sh SH221993 -9.90000 158.900 25 -1 -9.90000 158.900 TC 25 9 265
1993069S08164 1993 21 SP EA ROGER 1993-03-11 15:00:00 TS -9.93494 158.435 main 139 139 P___________P_ SH221993 -9.93494 158.435 25 -1 -9.93494 158.435 TC 25 9 264
1993069S08164 1993 21 SP EA ROGER 1993-03-11 18:00:00 TS -10.0000 158.000 main 157 156 O___________O_ jtwc_sh SH221993 -10.0000 158.000 25 -1 -10.0000 158.000 TC 25 9 258
1993069S08164 1993 21 SP EA ROGER 1993-03-11 21:00:00 TS -10.1200 157.585 main 169 169 P___________P_ SH221993 -10.1200 157.585 25 -1 -10.1200 157.585 TC 25 9 254
1993069S08164 1993 21 SP EA ROGER 1993-03-12 00:00:00 TS -10.2400 157.160 35 998 bom main 190 190 O_____O_O___O_ jtwc_sh SH221993 -10.3000 157.200 25 -1 -10.0000 157.000 21 35 998 2.50000 269 3 5 -10.0000 157.000 30 997 -10.3000 157.200 TC 25 9 245
1993069S08164 1993 21 SP EA ROGER 1993-03-12 03:00:00 TS -10.4746 156.799 main 239 239 P_____P_P___P_ SH221993 -10.5125 156.805 27 -1 -10.3475 156.803 21 35 998 269 -10.4501 156.770 30 997 -10.5125 156.805 TC 27 8 228
1993069S08164 1993 21 SP EA ROGER 1993-03-12 06:00:00 TS -10.7786 156.543 35 998 bom main 284 284 O_____O_O___O_ jtwc_sh SH221993 -10.8000 156.500 30 -1 -10.7000 156.600 30 35 998 2.50000 269 3 5 -10.8000 156.600 30 997 -10.8000 156.500 TC 30 7 212
1993069S08164 1993 21 SP EA ROGER 1993-03-12 09:00:00 TS -11.1031 156.401 main 319 319 P_____P_P___P_ SH221993 -11.1774 156.347 30 -1 -11.0575 156.393 30 35 996 296 -10.9999 156.515 30 997 -11.1774 156.347 TC 30 7 199
1993069S08164 1993 21 SP EA ROGER 1993-03-12 12:00:00 TS -11.4500 156.300 35 995 bom main 354 354 O_____O_O___O_ jtwc_sh SH221993 -11.6000 156.300 30 -1 -11.4000 156.200 30 35 995 2.50000 323 3 5 -11.2000 156.400 30 997 -11.6000 156.300 TC 30 8 197
1993069S08164 1993 21 SP EA ROGER 1993-03-12 15:00:00 TS -11.8175 156.184 main 398 398 P_____P_P___P_ SH221993 -11.9925 156.292 32 -1 -11.6925 156.042 30 37 992 350 -11.5926 156.108 35 993 -11.9925 156.292 TC 32 8 196
1993069S08164 1993 21 SP EA ROGER 1993-03-12 18:00:00 TS -12.2000 156.075 40 990 bom main 444 444 O_____O_O___O_ jtwc_sh SH221993 -12.4000 156.300 35 0 -12.0000 155.900 30 40 990 3.00000 377 3 5 -12.0000 155.800 40 990 -12.4000 156.300 TC 35 8 196
1993069S08164 1993 21 SP EA ROGER 1993-03-12 21:00:00 TS -12.5744 155.966 main 489 489 P_____P_P___P_ SH221993 -12.8500 156.258 37 0 -12.3850 155.743 30 40 990 417 -12.2125 155.605 40 990 -12.8500 156.258 TC 37 8 194
1993069S08164 1993 21 SP EA ROGER 1993-03-13 00:00:00 TS -12.9750 155.875 40 990 bom main 534 534 O_____O_O___O_ jtwc_sh SH221993 -13.3000 156.200 40 0 -12.8000 155.600 30 40 990 3.00000 458 3 5 -12.5000 155.500 40 990 -13.3000 156.200 TC 40 9 189
1993069S08164 1993 21 SP EA ROGER 1993-03-13 03:00:00 TS -13.4525 155.817 main 590 590 P_____P_P___P_ SH221993 -13.7225 156.157 40 0 -13.2075 155.478 30 40 990 458 -13.1575 155.477 40 990 -13.7225 156.157 TC 40 9 186
1993069S08164 1993 21 SP EA ROGER 1993-03-13 06:00:00 TS -13.9000 155.775 40 990 bom main 632 632 O_____O_O___O_ jtwc_sh SH221993 -14.1000 156.100 40 0 -13.6000 155.400 30 40 990 3.00000 458 3 5 -13.8000 155.500 40 990 -14.1000 156.100 TC 40 8 186
1993069S08164 1993 21 SP EA ROGER 1993-03-13 09:00:00 TS -14.2119 155.723 main 664 664 P_____P_P___P_ SH221993 -14.4150 156.007 42 0 -13.9650 155.385 30 40 990 458 -14.0525 155.493 40 990 -14.4150 156.007 TC 42 6 189
1993069S08164 1993 21 SP EA ROGER 1993-03-13 12:00:00 TS -14.4750 155.675 40 990 bom main 689 689 O_____O_O___O_ jtwc_sh SH221993 -14.7000 155.900 45 0 -14.3000 155.400 30 40 990 3.00000 458 3 5 -14.2000 155.500 40 990 -14.7000 155.900 TC 45 6 190
1993069S08164 1993 21 SP EA ROGER 1993-03-13 15:00:00 TS -14.7544 155.621 main 709 709 P_____P_P___P_ SH221993 -15.0000 155.793 45 0 -14.5775 155.378 30 40 989 458 -14.4400 155.520 42 988 -15.0000 155.793 TC 45 6 187
1993069S08164 1993 21 SP EA ROGER 1993-03-13 18:00:00 TS -15.0750 155.600 40 988 bom main 732 732 O_____O_O___O_ jtwc_sh SH221993 -15.3000 155.700 45 0 -14.9000 155.400 30 40 988 3.00000 458 3 5 -14.8000 155.600 45 987 -15.3000 155.700 TC 45 7 176
1993069S08164 1993 21 SP EA ROGER 1993-03-13 21:00:00 TS -15.4963 155.657 main 771 771 P_____P_P___P_ SH221993 -15.6000 155.642 45 0 -15.4000 155.535 30 45 986 417 -15.3851 155.807 47 986 -15.6000 155.642 TC 45 9 172
1993069S08164 1993 21 SP EA ROGER 1993-03-14 00:00:00 TS -15.9250 155.725 50 985 bom main 803 803 O_____O_O___O_ jtwc_sh SH221993 -15.9000 155.600 45 0 -15.9000 155.700 30 50 985 3.50000 377 3 5 -16.0000 156.000 50 985 -15.9000 155.600 TC 45 8 175
1993069S08164 1993 21 SP EA ROGER 1993-03-14 03:00:00 TS -16.2762 155.733 main 836 833 P_____P_P___P_ SH221993 -16.2000 155.543 47 0 -16.2450 155.815 30 50 985 377 -16.4600 156.030 50 985 -16.2000 155.543 TC 47 7 179
1993069S08164 1993 21 SP EA ROGER 1993-03-14 06:00:00 TS -16.5750 155.725 50 985 bom main 833 816 O_____O_O___O_ jtwc_sh SH221993 -16.5000 155.500 50 0 -16.5000 155.900 30 50 985 3.50000 377 3 5 -16.8000 156.000 50 985 -16.5000 155.500 TC 50 6 178
1993069S08164 1993 21 SP EA ROGER 1993-03-14 09:00:00 TS -16.8269 155.738 main 816 805 P_____P_P___P_ SH221993 -16.8000 155.492 50 0 -16.7075 155.965 30 50 985 350 -17.0000 156.000 50 985 -16.8000 155.492 TC 50 5 174
1993069S08164 1993 21 SP EA ROGER 1993-03-14 12:00:00 TS -17.0588 155.765 50 985 bom main 797 780 O_____O_O___O_ jtwc_sh SH221993 -17.1000 155.500 50 0 -16.9000 156.000 30 50 985 3.50000 323 3 5 -16.8000 156.000 985 -17.2000 156.000 50 985 -17.1000 155.500 TC 50 5 176
1993069S08164 1993 21 SP EA ROGER 1993-03-14 15:00:00 TS -17.2989 155.776 main 780 756 P_____PIP___P_ SH221993 -17.3700 155.493 50 0 -17.1125 156.008 30 50 982 323 -16.8450 156.000 986 -17.5700 156.000 52 982 -17.3700 155.493 TC 50 6 179
1993069S08164 1993 21 SP EA ROGER 1993-03-14 18:00:00 TS -17.6211 155.789 50 980 bom main 756 716 O_____O_O___O_ jtwc_sh SH221993 -17.7000 155.500 50 0 -17.4000 156.000 30 50 980 3.50000 323 3 5 -17.2000 156.000 987 -18.0000 156.000 55 980 -17.7000 155.500 TC 50 8 178
1993069S08164 1993 21 SP EA ROGER 1993-03-14 21:00:00 TS -18.1150 155.811 main 716 678 P_____PIP___P_ SH221993 -18.1700 155.520 52 0 -17.8125 156.007 30 55 980 323 -18.0150 156.000 981 -18.4075 156.007 57 977 -18.1700 155.520 TC 52 10 177
1993069S08164 1993 21 SP EA ROGER 1993-03-15 00:00:00 TS -18.6600 155.840 60 980 bom main 671 658 O_____O_O___O_ jtwc_sh SH221993 -18.7000 155.600 55 0 -18.3000 156.000 30 60 980 4.00000 323 3 5 -18.8000 156.000 975 -18.8000 156.000 60 975 -18.7000 155.600 TC 55 9 174
1993069S08164 1993 21 SP EA ROGER 1993-03-15 03:00:00 TS -19.0440 155.916 main 658 641 P_____PIP___P_ SH221993 -19.2001 155.807 55 0 -18.7775 155.965 30 60 980 323 -18.9074 156.030 975 -19.1350 155.972 60 975 -19.2001 155.807 TC 55 8 172
1993069S08164 1993 21 SP EA ROGER 1993-03-15 06:00:00 TS -19.4400 155.960 60 980 bom main 641 597 O_____O_O___O_ jtwc_sh SH221993 -19.7000 156.000 55 0 -19.3000 155.900 30 60 980 4.00000 323 3 5 -19.0000 156.000 975 -19.5000 155.900 60 975 -19.7000 156.000 TC 55 10 181
1993069S08164 1993 21 SP EA ROGER 1993-03-15 09:00:00 TS -19.9935 155.887 main 597 544 P_____PIP___P_ SH221993 -20.2150 156.038 55 0 -19.9000 155.800 30 57 980 323 -19.6751 155.808 977 -19.9626 155.750 57 977 -20.2150 156.038 TC 57 12 188
1993069S08164 1993 21 SP EA ROGER 1993-03-15 12:00:00 TS -20.5800 155.780 55 980 bom main 534 481 O_____O_O___O_ jtwc_sh SH221993 -20.7000 156.000 55 0 -20.5000 155.700 30 55 980 4.00000 323 3 5 -20.5000 155.600 980 -20.5000 155.600 55 980 -20.7000 156.000 TC 60 11 188
1993069S08164 1993 21 SP EA ROGER 1993-03-15 15:00:00 TS -21.1250 155.719 main 481 433 P_____PIP___P_ SH221993 -21.1300 155.958 55 0 -21.0375 155.635 30 52 980 323 -21.1824 155.520 980 -21.1450 155.527 55 980 -21.1300 155.958 TC 60 10 186
1993069S08164 1993 21 SP EA ROGER 1993-03-15 18:00:00 TS -21.5800 155.680 50 980 bom main 433 406 O_____O_O___O_ jtwc_sh SH221993 -21.5000 155.900 55 0 -21.5000 155.600 30 50 980 3.50000 323 3 5 -21.7000 155.500 980 -21.7000 155.500 55 980 -21.5000 155.900 TC 60 8 185
1993069S08164 1993 21 SP EA ROGER 1993-03-15 21:00:00 TS -21.8725 155.651 main 406 382 P_____PIP___P_ SH221993 -21.8225 155.850 52 0 -21.8800 155.592 30 47 980 323 -21.9000 155.478 980 -21.9375 155.485 52 982 -21.8225 155.850 TC 60 5 184
1993069S08164 1993 21 SP EA ROGER 1993-03-16 00:00:00 TS -22.1200 155.640 45 980 bom main 382 347 O_____O_O___O_ jtwc_sh SH221993 -22.1000 155.800 50 0 -22.2000 155.600 30 45 980 3.00000 323 3 5 -22.1000 155.500 980 -22.1000 155.500 50 985 -22.1000 155.800 TC 60 6 0
1993069S08164 1993 21 SP EA ROGER 1993-03-16 03:00:00 TS -22.4805 155.645 main 347 330 P_____PIP___P_ SH221993 -22.3575 155.743 50 0 -22.5150 155.600 30 42 982 323 -22.7300 155.600 983 -22.4425 155.542 47 986 -22.3575 155.743 TC 57 7 0
1993069S08164 1993 21 SP EA ROGER 1993-03-16 06:00:00 TS -22.8200 155.660 40 985 bom main 330 316 O_____O_O___O_ jtwc_sh SH221993 -22.6000 155.700 50 0 -22.8000 155.600 30 40 985 3.00000 323 3 5 -23.3000 155.700 987 -22.8000 155.600 45 987 -22.6000 155.700 TC 55 6 0
1993069S08164 1993 21 SP EA ROGER 1993-03-16 09:00:00 TS -23.0365 155.672 main 316 302 P_____PIP___P_ SH221993 -22.8425 155.692 50 0 -23.0650 155.600 30 40 985 296 -23.3600 155.715 987 -23.0725 155.658 42 988 -22.8425 155.692 TC 52 4 0
1993069S08164 1993 21 SP EA ROGER 1993-03-16 12:00:00 TS -23.2200 155.680 40 985 bom main 302 289 O_____O_O___O_ jtwc_sh SH221993 -23.1000 155.700 50 0 -23.3000 155.600 30 40 985 3.00000 269 3 5 -23.3000 155.700 987 -23.3000 155.700 40 990 -23.1000 155.700 TC 50 4 0
1993069S08164 1993 21 SP EA ROGER 1993-03-16 15:00:00 TS -23.4555 155.674 main 283 272 P_____PIP___P_ SH221993 -23.4000 155.700 50 0 -23.5150 155.578 30 42 985 269 -23.4625 155.693 986 -23.5000 155.700 42 988 -23.4000 155.700 TC 50 5 0
1993069S08164 1993 21 SP EA ROGER 1993-03-16 18:00:00 TS -23.7000 155.680 45 985 bom main 272 262 O_____O_O___O_ jtwc_sh SH221993 -23.7000 155.700 50 0 -23.7000 155.600 30 45 985 3.00000 269 3 5 -23.7000 155.700 985 -23.7000 155.700 45 987 -23.7000 155.700 TC 50 5 175
1993069S08164 1993 21 SP EA ROGER 1993-03-16 21:00:00 TS -23.9465 155.721 main 262 253 P_____PIP___P_ SH221993 -23.9725 155.685 50 0 -23.8725 155.735 30 47 985 269 -23.9575 155.750 983 -23.9575 155.750 47 986 -23.9725 155.685 TC 50 5 169
1993069S08164 1993 21 SP EA ROGER 1993-03-17 00:00:00 TS -24.1600 155.780 50 985 bom main 258 254 O_____O_O___O_ jtwc_sh SH221993 -24.2000 155.700 50 0 -24.0000 155.900 30 50 985 3.50000 269 3 5 -24.2000 155.800 982 -24.2000 155.800 50 985 -24.2000 155.700 TC 50 4 166
1993069S08164 1993 21 SP EA ROGER 1993-03-17 03:00:00 TS -24.3455 155.831 main 254 251 P_____PIP___P_ SH221993 -24.4100 155.777 47 0 -24.0725 156.000 30 50 985 269 -24.4175 155.800 983 -24.4175 155.800 50 985 -24.4100 155.777 TC 47 3 157
1993069S08164 1993 21 SP EA ROGER 1993-03-17 06:00:00 TS -24.4200 155.900 50 985 bom main 261 261 O_____O_O___O_ jtwc_sh SH221993 -24.5000 155.900 45 0 -24.1000 156.100 30 50 985 3.50000 269 3 5 -24.5000 155.800 985 -24.5000 155.800 50 985 -24.5000 155.900 TC 45 1 81
1993069S08164 1993 21 SP EA ROGER 1993-03-17 09:00:00 TS -24.3263 155.965 main 273 273 P_____PIP___P_ SH221993 -24.3949 156.028 45 0 -24.1375 156.235 30 47 985 242 -24.3522 155.767 986 -24.3522 155.767 47 986 -24.3949 156.028 TC 45 3 36
1993069S08164 1993 21 SP EA ROGER 1993-03-17 12:00:00 TS -24.1400 156.120 45 985 bom main 290 290 O_____O_O___O_ jtwc_sh SH221993 -24.2000 156.200 45 0 -24.1000 156.400 30 45 985 3.00000 215 3 5 -24.1000 155.900 987 -24.1000 155.900 45 987 -24.2000 156.200 TC 45 6 54
1993069S08164 1993 21 SP EA ROGER 1993-03-17 15:00:00 TS -23.9829 156.479 main 332 332 P_____PIP___P_ SH221993 -24.0651 156.450 42 0 -23.9375 156.608 30 45 985 215 -23.9234 156.443 987 -23.9234 156.443 45 987 -24.0651 156.450 TC 42 8 61
1993069S08164 1993 21 SP EA ROGER 1993-03-17 18:00:00 TS -23.7800 156.840 45 985 bom main 369 369 O_____O_O___O_ jtwc_sh SH221993 -23.9000 156.700 40 0 -23.7000 156.800 30 45 985 3.00000 215 3 5 -23.7000 157.000 987 -23.7000 157.000 45 987 -23.9000 156.700 TC 40 7 44
1993069S08164 1993 21 SP EA ROGER 1993-03-17 21:00:00 TS -23.4823 157.002 main 401 401 P_____PIP___P_ SH221993 -23.6649 156.865 40 0 -23.4425 156.915 30 45 985 215 -23.3197 157.182 987 -23.3197 157.182 45 987 -23.6649 156.865 TC 40 6 21
1993069S08164 1993 21 SP EA ROGER 1993-03-18 00:00:00 TS -23.2000 157.080 45 985 bom main 425 425 O_____O_O___O_ jtwc_sh SH221993 -23.4000 157.000 40 0 -23.2000 157.000 30 45 985 3.00000 215 3 5 -23.0000 157.200 987 -23.0000 157.200 45 987 -23.4000 157.000 TC 40 5 19
1993069S08164 1993 21 SP EA ROGER 1993-03-18 03:00:00 TS -23.0520 157.167 main 439 439 P_____PIP___P_ SH221993 -23.1500 157.157 37 0 -23.0350 157.092 30 45 985 215 -22.9625 157.215 987 -22.9625 157.215 45 987 -23.1500 157.157 TC 37 3 29
1993069S08164 1993 21 SP EA ROGER 1993-03-18 06:00:00 TS -22.9400 157.240 45 985 bom main 449 449 O_____O_O___O_ jtwc_sh SH221993 -22.9000 157.300 35 0 -22.9000 157.200 30 45 985 3.00000 215 3 5 -23.0000 157.200 987 -23.0000 157.200 45 987 -22.9000 157.300 TC 35 3 21
1993069S08164 1993 21 SP EA ROGER 1993-03-18 09:00:00 TS -22.7864 157.283 main 464 464 P_____PIP___P_ SH221993 -22.6500 157.400 35 0 -22.7575 157.335 30 45 985 215 -22.9373 157.140 987 -22.9373 157.140 45 987 -22.6500 157.400 TC 35 4 21
1993069S08164 1993 21 SP EA ROGER 1993-03-18 12:00:00 TS -22.6000 157.380 45 985 bom main 484 484 O_____O_O___O_ jtwc_sh SH221993 -22.4000 157.500 35 0 -22.6000 157.500 30 45 985 3.00000 215 3 5 -22.8000 157.200 987 -22.8000 157.200 45 987 -22.4000 157.500 TC 35 5 37
1993069S08164 1993 21 SP EA ROGER 1993-03-18 15:00:00 TS -22.3707 157.627 main 513 513 P_____PIP___P_ SH221993 -22.1500 157.642 32 -1 -22.4075 157.693 30 47 985 215 -22.5729 157.578 986 -22.5729 157.578 47 986 -22.1500 157.642 TC 32 7 45
1993069S08164 1993 21 SP EA ROGER 1993-03-18 18:00:00 TS -22.1200 157.900 50 985 bom main 557 557 O_____O_O___O_ jtwc_sh SH221993 -21.9000 157.800 30 -1 -22.2000 157.900 30 50 985 3.00000 215 3 5 -22.3000 158.000 985 -22.3000 158.000 50 985 -21.9000 157.800 TC 30 6 39
1993069S08164 1993 21 SP EA ROGER 1993-03-18 21:00:00 TS -21.8799 158.060 main 587 587 P_____PIP___P_ SH221993 -21.6500 157.942 30 -1 -22.0000 158.100 30 50 985 215 -22.0497 158.157 985 -22.0497 158.157 50 985 -21.6500 157.942 TC 30 6 32
1993069S08164 1993 21 SP EA ROGER 1993-03-19 00:00:00 TS -21.6400 158.220 50 985 bom main 615 594 O_____O_O___O_ jtwc_sh SH221993 -21.4000 158.100 30 -1 -21.8000 158.300 30 50 985 3.50000 215 3 5 -21.8000 158.300 985 -21.8000 158.300 50 985 -21.4000 158.100 TC 30 6 37
1993069S08164 1993 21 SP EA ROGER 1993-03-19 03:00:00 TS -21.3880 158.462 main 584 560 P_____PIP___P_ SH221993 -21.1350 158.300 30 -1 -21.6075 158.515 30 50 985 215 -21.5349 158.598 985 -21.5274 158.598 50 985 -21.1350 158.300 TC 30 7 45
1993069S08164 1993 21 SP EA ROGER 1993-03-19 06:00:00 TS -21.1600 158.740 50 985 bom main 560 526 O_____O_O___O_ jtwc_sh SH221993 -20.9000 158.500 30 -1 -21.4000 158.700 30 50 985 3.50000 215 3 5 -21.3000 159.000 985 -21.3000 159.000 50 985 -20.9000 158.500 TC 30 7 53
1993069S08164 1993 21 SP EA ROGER 1993-03-19 09:00:00 TS -20.9838 159.038 main 526 492 P_____PIP___P_ SH221993 -20.7350 158.665 30 -1 -21.1500 158.822 30 47 987 269 -21.1287 159.522 987 -21.1703 159.515 47 986 -20.7350 158.665 TC 30 6 59
1993069S08164 1993 21 SP EA ROGER 1993-03-19 12:00:00 TS -20.8400 159.300 45 990 bom main 492 470 O_____O_O___O_ jtwc_sh SH221993 -20.6000 158.800 30 -1 -20.9000 158.900 30 45 990 3.00000 323 3 5 -21.0000 160.000 990 -21.1000 160.000 45 987 -20.6000 158.800 TC 30 5 55
1993069S08164 1993 21 SP EA ROGER 1993-03-19 15:00:00 TS -20.7008 159.463 main 470 469 P_____P_P___P_ SH221993 -20.4425 158.915 30 -1 -20.6925 158.957 30 45 990 323 -20.8766 160.127 -21.0497 160.400 45 987 -20.4425 158.915 TC 30 3 36
1993069S08164 1993 21 SP EA ROGER 1993-03-19 18:00:00 TS -20.5749 159.503 45 990 bom main 469 469 O_____O_O___O_ jtwc_sh SH221993 -20.3000 159.000 30 -1 -20.5000 159.000 30 45 990 3.00000 323 3 5 -20.7743 160.016 -21.0000 160.500 45 987 -20.3000 159.000 TC 30 3 343
1993069S08164 1993 21 SP EA ROGER 1993-03-19 21:00:00 TS -20.4580 159.395 main 479 479 P_____P_P___P_ SH221993 -20.1850 159.050 30 -1 -20.2850 159.042 30 45 990 296 -20.6892 159.763 -20.9456 160.067 42 988 -20.1850 159.050 TC 30 3 315
1993069S08164 1993 21 SP EA ROGER 1993-03-20 00:00:00 TS -20.3434 159.253 45 990 bom main 490 490 O_____O_O___O_ jtwc_sh SH221993 -20.1000 159.100 30 -1 -20.1000 159.100 30 45 990 3.00000 269 3 5 -20.6172 159.463 -20.8000 159.500 40 990 -20.1000 159.100 TC 30 3 324
1993069S08164 1993 21 SP EA ROGER 1993-03-20 03:00:00 TS -20.2015 159.195 main 500 500 P_____P_P___P_ SH221993 -20.0425 159.193 30 -1 -19.9550 159.178 30 47 990 269 -20.5552 159.210 -20.4123 159.202 45 987 -20.0425 159.193 TC 30 3 355
1993069S08164 1993 21 SP EA ROGER 1993-03-20 06:00:00 TS -20.0789 159.226 50 990 bom main 501 491 O_____O_O___O_ jtwc_sh SH221993 -20.0000 159.300 30 -1 -19.9000 159.300 30 50 990 3.50000 269 3 5 -20.5000 159.100 985 -20.1000 159.100 50 985 -20.0000 159.300 TC 30 2 36
1993069S08164 1993 21 SP EA ROGER 1993-03-20 09:00:00 TS -20.0348 159.321 main 491 470 P_____PIP___P_ SH221993 -19.9049 159.378 30 -1 -19.9474 159.455 30 50 990 269 -20.4491 159.191 985 -20.1747 159.138 50 985 -19.9049 159.378 TC 30 3 93
1993069S08164 1993 21 SP EA ROGER 1993-03-20 12:00:00 TS -20.0941 159.518 50 990 bom main 470 437 O_____O_O___O_ jtwc_sh SH221993 -19.9000 159.500 30 -1 -20.1000 159.700 30 50 990 3.50000 269 3 5 -20.4000 159.400 985 -20.4000 159.400 50 985 -19.9000 159.500 TC 30 5 115
1993069S08164 1993 21 SP EA ROGER 1993-03-20 15:00:00 TS -20.2644 159.839 main 437 396 P_____P_P___P_ SH221993 -20.0898 159.690 30 -1 -20.3273 160.040 30 50 990 269 -20.5506 159.935 50 985 -20.0898 159.690 TC 30 8 122
1993069S08164 1993 21 SP MM ROGER 1993-03-20 18:00:00 TS -20.5200 160.233 main 396 356 O_____O_O___O_ jtwc_sh SH221993 -20.4000 160.000 30 -1 -20.6000 160.500 30 50 990 3.50000 269 3 5 -20.7000 160.500 50 985 -20.4000 160.000 TC 30 9 125
1993069S08164 1993 21 SP MM ROGER 1993-03-20 21:00:00 TS -20.7787 160.610 main 358 321 P_____P_P___P_ SH221993 -20.7425 160.447 30 -1 -20.8581 161.070 30 47 990 269 -20.8115 160.706 50 985 -20.7425 160.447 TC 30 9 126
1993069S08164 1993 21 SP MM ROGER 1993-03-21 00:00:00 TS -21.0692 161.054 main 314 278 O_____O_O___O_ jtwc_sh SH221993 -21.1000 161.000 30 -1 -21.1000 161.700 30 45 990 3.00000 269 3 5 -21.0000 161.000 50 985 -21.1000 161.000 TC 30 11 123
1993069S08164 1993 21 SP MM ROGER 1993-03-21 03:00:00 TS -21.4001 161.641 main 278 235 P_______P___P_ SH221993 -21.4074 161.585 30 -1 30 -21.3855 161.752 47 986 -21.4074 161.585 TC 30 14 119
1993069S08164 1993 21 SP MM ROGER 1993-03-21 06:00:00 TS -21.7333 162.367 main 228 197 O_______O___O_ jtwc_sh SH221993 -21.7000 162.200 30 -1 -21.8000 162.700 45 987 -21.7000 162.200 TC 30 14 116
1993069S08164 1993 21 SP MM ROGER 1993-03-21 09:00:00 TS -22.0184 163.030 main 197 159 P_______P___P_ SH221993 -21.9842 162.756 32 -1 -22.0869 163.578 45 987 -21.9842 162.756 TC 32 14 114
1993069S08164 1993 21 SP MM ROGER 1993-03-21 12:00:00 TS -22.3000 163.767 main 151 123 O_______O___O_ jtwc_sh SH221993 -22.3000 163.400 35 0 -22.3000 164.500 45 987 -22.3000 163.400 TC 35 16 110
1993069S08164 1993 21 SP MM ROGER 1993-03-21 15:00:00 TS -22.5587 164.644 main 133 103 P_______P___P_ SH221993 -22.6692 164.203 35 0 -22.3378 165.525 45 987 -22.6692 164.203 TC 35 18 110
1993069S08164 1993 21 SP MM ROGER 1993-03-21 18:00:00 TS -22.9333 165.633 main 103 98 O_______O___O_ jtwc_sh SH221993 -23.1000 165.200 35 0 -22.6000 166.500 45 987 -23.1000 165.200 TC 35 21 119
1993069S08164 1993 21 SP MM ROGER 1993-03-21 21:00:00 TS -23.5870 166.676 main 134 134 P_______P___P_ SH221993 -23.5850 166.390 35 0 -23.5910 167.248 42 988 -23.5850 166.390 TC 35 24 124
1993069S08164 1993 21 SP MM ROGER 1993-03-22 00:00:00 TS -24.3000 167.820 main 231 231 O_______O___O_ jtwc_sh SH221993 -24.1000 167.700 35 0 -24.6000 168.000 40 990 -24.1000 167.700 TC 35 24 119
1993069S08164 1993 21 SP MM ROGER 1993-03-22 03:00:00 TS -24.7591 168.967 main 343 343 P_______P___P_ SH221993 -24.6067 169.006 35 0 -24.9116 168.928 40 990 -24.6067 169.006 TC 35 22 110
1993069S08164 1993 21 SP MM ROGER 1993-03-22 06:00:00 TS -25.0333 170.100 40 990 wellington main 436 436 O_______O___O_ jtwc_sh SH221993 -25.1000 170.300 35 0 -25.0000 170.000 40 990 -25.1000 170.300 TC 35 22 104
1993069S08164 1993 21 SP MM ROGER 1993-03-22 09:00:00 NR -25.2740 171.286 main 550 550 ________P_____ SH221993 -1 -25.2740 171.286 37 992 TC 22 102
1993069S08164 1993 21 SP MM ROGER 1993-03-22 12:00:00 NR -25.5000 172.500 35 995 wellington main 663 663 ________O_____ -1 -25.5000 172.500 35 995 19 99
1993069S08164 1993 21 SP MM ROGER 1993-03-22 15:00:00 NR -25.5707 173.326 main 738 738 ________P_____ -1 -25.5707 173.326 35 995 14 94
1993069S08164 1993 21 SP MM ROGER 1993-03-22 18:00:00 NR -25.6000 174.000 35 995 wellington main 800 800 ________O_____ -1 -25.6000 174.000 35 995 13 96
1993069S08164 1993 21 SP MM ROGER 1993-03-22 21:00:00 NR -25.6966 174.762 main 878 874 ________P_____ -1 -25.6966 174.762 32 996 14 98
1993069S08164 1993 21 SP MM ROGER 1993-03-23 00:00:00 NR -25.8000 175.500 30 997 wellington main 874 861 ________O_____ -1 -25.8000 175.500 30 997 13 97
1993069S08164 1993 21 SP MM ROGER 1993-03-23 03:00:00 NR -25.8624 176.209 main 867 857 ________P_____ -1 -25.8624 176.209 28 998 12 95
1993069S08164 1993 21 SP MM ROGER 1993-03-23 06:00:00 NR -25.9065 176.870 main 855 851 ________P_____ -1 -25.9065 176.870 27 999 11 94
1993069S08164 1993 21 SP MM ROGER 1993-03-23 09:00:00 NR -25.9473 177.471 main 850 850 ________P_____ -1 -25.9473 177.471 26 1000 10 95
1993069S08164 1993 21 SP MM ROGER 1993-03-23 12:00:00 NR -26.0000 178.000 25 1001 wellington main 860 860 ________O_____ -1 -26.0000 178.000 25 1001 8 98
1993069S08164 1993 21 SP MM ROGER 1993-03-23 15:00:00 NR -26.0618 178.367 main 872 872 ________P_____ -1 -26.0618 178.367 25 1001 6 103
1993069S08164 1993 21 SP MM ROGER 1993-03-23 18:00:00 NR -26.1423 178.678 main 873 873 ________P_____ -1 -26.1423 178.678 25 1001 6 108
1993069S08164 1993 21 SP MM ROGER 1993-03-23 21:00:00 NR -26.2519 179.024 main 898 898 ________P_____ -1 -26.2519 179.024 25 1001 8 109
1993069S08164 1993 21 SP MM ROGER 1993-03-24 00:00:00 NR -26.4000 179.500 25 1002 wellington main 915 915 ________O_____ -1 -26.4000 179.500 25 1002 10 109
1993069S08164 1993 21 SP MM ROGER 1993-03-24 03:00:00 NR -26.5936 180.131 main 948 948 ________P_____ -1 -26.5936 -179.869 25 1002 13 108
1993069S08164 1993 21 SP MM ROGER 1993-03-24 06:00:00 NR -26.8210 180.914 main 989 989 ________P_____ -1 -26.8210 -179.086 25 1002 16 107
1993069S08164 1993 21 SP MM ROGER 1993-03-24 09:00:00 NR -27.0631 181.866 main 1054 1054 ________P_____ -1 -27.0631 -178.134 25 1002 19 104
1993069S08164 1993 21 SP MM ROGER 1993-03-24 12:00:00 NR -27.3000 183.000 25 1002 wellington main 1118 1118 ________O_____ -1 -27.3000 -177.000 25 1002 23 101
1993069S08164 1993 21 SP MM ROGER 1993-03-24 15:00:00 NR -27.4859 184.402 main 1201 1201 ________P_____ -1 -27.4859 -175.598 25 1002 27 98
1993069S08164 1993 21 SP MM ROGER 1993-03-24 18:00:00 NR -27.6551 185.964 main 1306 1306 ________P_____ -1 -27.6551 -174.036 25 1002 28 97
1993069S08164 1993 21 SP MM ROGER 1993-03-24 21:00:00 NR -27.8202 187.544 main 1380 1380 ________P_____ -1 -27.8202 -172.456 25 1002 27 97
1993069S08164 1993 21 SP MM ROGER 1993-03-25 00:00:00 NR -28.0000 189.000 25 1002 wellington main 1450 1450 ________O_____ -1 -28.0000 -171.000 25 1002 23 100
1993069S08164 1993 21 SP MM ROGER 1993-03-25 03:00:00 NR -28.1963 190.087 main 1504 1504 ________P_____ -1 -28.1963 -169.913 25 1002 19 103
1993069S08164 1993 21 SP MM ROGER 1993-03-25 06:00:00 NR -28.4240 191.044 main 1548 1547 ________P_____ -1 -28.4240 -168.956 25 1002 17 107
1993069S08164 1993 21 SP MM ROGER 1993-03-25 09:00:00 NR -28.6905 191.979 main 1595 1595 ________P_____ -1 -28.6905 -168.021 25 1002 18 109
1993069S08164 1993 21 SP MM ROGER 1993-03-25 12:00:00 NR -29.0000 193.000 25 1002 wellington main 1646 1646 ________O_____ -1 -29.0000 -167.000 25 1002 20 108
1993069S08164 1993 21 SP MM ROGER 1993-03-25 15:00:00 NR -29.3208 194.183 main 1717 1717 ________P_____ -1 -29.3208 -165.817 25 1002 23 107
1993069S08164 1993 21 SP MM ROGER 1993-03-25 18:00:00 NR -29.6795 195.481 main 1793 1793 ________P_____ -1 -29.6795 -164.519 25 1002 25 108
1993069S08164 1993 21 SP MM ROGER 1993-03-25 21:00:00 NR -30.0738 196.914 main 1881 1881 ________P_____ -1 -30.0738 -163.086 25 1002 27 107
1993069S08164 1993 21 SP MM ROGER 1993-03-26 00:00:00 NR -30.5000 198.500 25 1003 wellington main 1991 1991 ________O_____ -1 -30.5000 -161.500 25 1003 30 107
1993069S08164 1993 21 SP MM ROGER 1993-03-26 03:00:00 NR -30.9546 200.278 main 2117 2117 ________P_____ -1 -30.9546 -159.722 25 1004 33 106
1993069S08164 1993 21 SP MM ROGER 1993-03-26 06:00:00 NR -31.4242 202.207 main 2260 2260 ________P_____ -1 -31.4242 -157.793 25 1005 35 105
1993069S08164 1993 21 SP MM ROGER 1993-03-26 09:00:00 NR -31.8804 204.209 main 2411 2411 ________P_____ -1 -31.8804 -155.791 25 1006 35 104
1993069S08164 1993 21 SP MM ROGER 1993-03-26 12:00:00 NR -32.3000 206.200 25 1007 wellington main 2569 2569 ________O_____ -1 -32.3000 -153.800 25 1007 33 105
1993069S08164 1993 21 SP MM ROGER 1993-03-26 15:00:00 NR -32.7488 208.001 main 2711 2711 ________P_____ -1 -32.7488 -151.999 25 1007 33 102
1993069S08164 1993 21 SP MM ROGER 1993-03-26 18:00:00 NR -33.0000 210.000 25 1008 wellington main 2875 2875 ________O_____ -1 -33.0000 -150.000 25 1008 37 92
1993069S08164 1993 21 SP MM ROGER 1993-03-26 21:00:00 NR -32.8789 212.390 main 3089 3089 ________P_____ -1 -32.8789 -147.610 25 1008 42 83
1993069S08164 1993 21 SP MM ROGER 1993-03-27 00:00:00 NR -32.5000 215.000 25 1008 wellington main 3332 ________O_____ -1 -32.5000 -145.000 25 1008 45 80

Digital Typhoon Data and Search

About IBTrACS Database

This database is a web-friendly format of International Best Track Archive for Climate Stewardship (IBTrACS), a global best track data archive curated by NOAA dating back to 1842.

Updated: 2021-10-21